Extreme high temperature From: 16-07-2018 05:00 Until: 19:00 warning for: Extreme high temperature Level: Yellow info button
suomi:
Hellevaroitus: Lähivuorokauden aikana on odotettavissa tukalaa hellettä.

svenska:
Varning för värmebölja: Under det närmaste dygnet är den svåra hettan att vänta.

english:
Heat wave warning: Warm weather is expected during the coming 24 hours. 


Thunder radar more information blitzortung!


Löydät sääaseman tiedot myös:

European Weather Network

Finland Weather Exchange

Weather Underground

AWEKAS



Weather Underground säähistoriasivu

Päivittäin yhteenveto Kesäkuu 21, 2017 Yksiköt:  Metriset    Englantilaiset   Molemmat
« Edellinen Päivä
Seuraava Päivä »
Päivittäin Viikoittain Kuukausittain Vuosittain Mukautettu
  Korkea: Matala: Keskiarvo:
Lämpötila: -17.8 °C -12.4 °C -10.9 °C
Kastepiste: -17.8 °C -14.3 °C -13.5 °C
Kosteus: Humidity % 54 % 73 %
Tuulen nopeus: 0 km/h 0 km/h 4.7 km/h
Tuulenpuuska: 0 km/h - -
Tuuli:- - WNW
Ilmanpaine: 0 hPa 33775.4 hPa -
Sade: 25.4 mm    
Historical Graphs
 
 
Taulukkotiedot Kesäkuu 21, 2017
Aika Lämpötila Kastepiste Ilmanpaine Tuuli Tuulen nopeus Tuulenpuuska Kosteus Sademäärä (tunneittain)
-17.8 °C -17.8 °C 0 hPa Calm     Humidity % 0 mm
00:00 -11.8 °C -13.6 °C 33788.9 hPa West 2.6 km/h 10.3 km/h 80 % 0 mm
00:15 -11.8 °C -13.7 °C 33788.9 hPa WSW 2.6 km/h 12.9 km/h 80 % 0 mm
00:30 -11.8 °C -13.7 °C 33788.9 hPa WSW 2.6 km/h 15.6 km/h 80 % 0 mm
00:45 -11.9 °C -13.6 °C 33788.9 hPa West 2.6 km/h 23.3 km/h 81 % 0 mm
01:00 -11.9 °C -13.7 °C 33775.4 hPa West 5.1 km/h 23.3 km/h 81 % 0 mm
01:15 -11.9 °C -13.7 °C 33775.4 hPa West 2.6 km/h 12.9 km/h 81 % 0 mm
01:30 -11.9 °C -13.6 °C 33775.4 hPa West 5.1 km/h 15.6 km/h 82 % 0 mm
01:45 -12 °C -13.7 °C 33775.4 hPa WNW 5.1 km/h 25.9 km/h 81 % 0 mm
02:00 -12 °C -13.7 °C 33788.9 hPa West 5.1 km/h 15.6 km/h 81 % 0 mm
02:15 -12.1 °C -13.7 °C 33788.9 hPa West 2.6 km/h 20.8 km/h 82 % 0 mm
02:45 -12.2 °C -13.8 °C 33788.9 hPa WNW 5.1 km/h 18.2 km/h 82 % 0 mm
03:00 -12.2 °C -13.9 °C 33775.4 hPa WNW 5.1 km/h 15.6 km/h 81 % 0 mm
03:15 -12.2 °C -14.1 °C 33788.9 hPa WNW 7.7 km/h 23.3 km/h 80 % 0 mm
03:30 -12.3 °C -14.1 °C 33775.4 hPa WNW 5.1 km/h 23.3 km/h 80 % 0 mm
03:45 -12.3 °C -14.1 °C 33775.4 hPa West 7.7 km/h 18.2 km/h 81 % 0 mm
04:00 -12.4 °C -14.1 °C 33788.9 hPa West 5.1 km/h 18.2 km/h 81 % 0 mm
04:15 -12.4 °C -14.1 °C 33788.9 hPa West 5.1 km/h 18.2 km/h 82 % 0 mm
04:30 -12.4 °C -14.1 °C 33775.4 hPa WNW 5.1 km/h 18.2 km/h 82 % 0 mm
04:45 -12.3 °C -14.1 °C 33775.4 hPa WNW 5.1 km/h 20.8 km/h 81 % 0 mm
05:00 -12.4 °C -14.1 °C 33775.4 hPa West 2.6 km/h 20.8 km/h 81 % 0 mm
05:15 -12.4 °C -14.1 °C 33788.9 hPa West 2.6 km/h 12.9 km/h 82 % 0 mm
05:30 -12.4 °C -14 °C 33788.9 hPa WNW 5.1 km/h 23.3 km/h 83 % 0 mm
05:45 -12.4 °C -13.9 °C 33788.9 hPa West 2.6 km/h 15.6 km/h 84 % 0 mm
06:00 -12.4 °C -13.9 °C 33788.9 hPa NW 5.1 km/h 20.8 km/h 83 % 0 mm
06:15 -12.3 °C -13.8 °C 33788.9 hPa WNW 2.6 km/h 18.2 km/h 83 % 0 mm
06:30 -12.2 °C -13.7 °C 33799.1 hPa WNW 5.1 km/h 25.9 km/h 83 % 0 mm
06:45 -12.1 °C -13.7 °C 33799.1 hPa WNW 5.1 km/h 20.8 km/h 82 % 0 mm
07:00 -11.9 °C -13.5 °C 33799.1 hPa NW 5.1 km/h 23.3 km/h 83 % 0 mm
07:15 -11.6 °C -13.4 °C 33799.1 hPa WNW 7.7 km/h 31.1 km/h 81 % 0 mm
07:30 -11.6 °C -13.5 °C 33799.1 hPa NW 5.1 km/h 20.8 km/h 80 % 0 mm
07:45 -11.6 °C -13.3 °C 33809.2 hPa NW 5.1 km/h 15.6 km/h 81 % 0 mm
08:00 -11.6 °C -13.2 °C 33809.2 hPa NW 5.1 km/h 15.6 km/h 82 % 0 mm
08:30 -11.4 °C -13.1 °C 33822.8 hPa NW 7.7 km/h 25.9 km/h 82 % 0 mm
08:45 -11.4 °C -13.1 °C 33822.8 hPa NW 7.7 km/h 20.8 km/h 82 % 0 mm
09:00 -11.4 °C -13.1 °C 33822.8 hPa NW 5.1 km/h 18.2 km/h 81 % 0 mm
09:15 -11.2 °C -13 °C 33832.9 hPa NW 5.1 km/h 12.9 km/h 81 % 0 mm
09:30 -10.9 °C -12.7 °C 33832.9 hPa NW 2.6 km/h 18.2 km/h 81 % 0 mm
09:45 -10.9 °C -12.7 °C 33832.9 hPa NW 12.9 km/h 25.9 km/h 80 % 0 mm
10:00 -10.9 °C -12.4 °C 33843.1 hPa NNW 5.1 km/h 20.8 km/h 84 % 0 mm
10:15 -11.3 °C -12.5 °C 33843.1 hPa NNW 2.6 km/h 18.2 km/h 87 % 0 mm
10:30 -11.5 °C -12.3 °C 33856.6 hPa NW 2.6 km/h 12.9 km/h 90 % 0 mm
10:45 -11.4 °C -12.2 °C 33856.6 hPa NW 2.6 km/h 12.9 km/h 91 % 0 mm
11:00 -11.3 °C -12.2 °C 33866.8 hPa NNW 2.6 km/h 10.3 km/h 90 % 0 mm
11:15 -11.6 °C -12.6 °C 33866.8 hPa Calm     89 % 25.4 mm
11:30 -11.8 °C -12.4 °C 33866.8 hPa Calm   2.6 km/h 92 % 25.4 mm
11:45 -11.6 °C -12.2 °C 33880.3 hPa Calm   7.7 km/h 93 % 25.4 mm
12:00 -11.3 °C -11.9 °C 33880.3 hPa NNW 2.6 km/h 12.9 km/h 93 % 25.4 mm
12:15 -10.9 °C -11.7 °C 33890.5 hPa Calm   25.9 km/h 91 % 0 mm
12:30 -10.7 °C -11.8 °C 33900.6 hPa NNW 5.1 km/h 15.6 km/h 87 % 0 mm
12:45 -10.5 °C -12.4 °C 33900.6 hPa NNW 5.1 km/h 23.3 km/h 80 % 0 mm
13:00 -10.2 °C -12.9 °C 33900.6 hPa North 5.1 km/h 15.6 km/h 72 % 0 mm
13:15 -9.6 °C -13.4 °C 33900.6 hPa NNW 5.1 km/h 25.9 km/h 64 % 0 mm
13:30 -9.5 °C -13.9 °C 33914.2 hPa NNW 7.7 km/h 31.1 km/h 59 % 0 mm
13:45 -9.3 °C -13.5 °C 33914.2 hPa NNW 5.1 km/h 18.2 km/h 61 % 0 mm
14:00 -9.3 °C -13.9 °C 33914.2 hPa NNW 7.7 km/h 31.1 km/h 57 % 0 mm
14:15 -9.3 °C -13.9 °C 33924.3 hPa North 5.1 km/h 18.2 km/h 58 % 0 mm
14:30 -9 °C -13.6 °C 33924.3 hPa NNW 5.1 km/h 18.2 km/h 58 % 0 mm
14:45 -9.1 °C -14 °C 33937.9 hPa NW 12.9 km/h 36.2 km/h 56 % 0 mm
15:00 -9.3 °C -13.9 °C 33937.9 hPa NW 10.3 km/h 31.1 km/h 58 % 0 mm
15:15 -9.1 °C -14.1 °C 33937.9 hPa North 5.1 km/h 20.8 km/h 55 % 0 mm
15:30 -9.1 °C -14.2 °C 33937.9 hPa NW 10.3 km/h 31.1 km/h 54 % 0 mm
15:45 -9.3 °C -14.3 °C 33948 hPa NW 15.6 km/h 31.1 km/h 55 % 0 mm
16:00 -9.2 °C -14.3 °C 33948 hPa NW 10.3 km/h 25.9 km/h 54 % 0 mm
16:15 -9 °C -14 °C 33948 hPa NW 10.3 km/h 25.9 km/h 55 % 0 mm
16:30 -9.3 °C -14.1 °C 33948 hPa NW 10.3 km/h 31.1 km/h 56 % 0 mm
16:45 -9.1 °C -13.9 °C 33948 hPa NW 7.7 km/h 20.8 km/h 56 % 0 mm
17:00 -9.4 °C -14 °C 33958.2 hPa NW 5.1 km/h 20.8 km/h 58 % 0 mm
17:15 -9.3 °C -13.8 °C 33958.2 hPa NW 7.7 km/h 20.8 km/h 58 % 0 mm
17:30 -9.2 °C -14.2 °C 33958.2 hPa NW 7.7 km/h 20.8 km/h 55 % 0 mm
17:45 -8.9 °C -13.7 °C 33948 hPa NW 5.1 km/h 20.8 km/h 57 % 0 mm
18:00 -9 °C -14 °C 33948 hPa WNW 7.7 km/h 28.5 km/h 55 % 0 mm
18:15 -9.2 °C -13.7 °C 33948 hPa NW 7.7 km/h 23.3 km/h 58 % 0 mm
18:30 -9 °C -13.7 °C 33948 hPa NW 7.7 km/h 36.2 km/h 57 % 0 mm
18:45 -8.9 °C -13.9 °C 33948 hPa WNW 10.3 km/h 44.1 km/h 55 % 0 mm
19:00 -9.1 °C -13.3 °C 33958.2 hPa NNW 7.7 km/h 33.6 km/h 60 % 0 mm
19:15 -10.1 °C -13.3 °C 33958.2 hPa NNW 5.1 km/h 15.6 km/h 68 % 0 mm
19:30 -10.1 °C -13.2 °C 33948 hPa Calm   7.7 km/h 69 % 0 mm
19:45 -9.9 °C -13 °C 33948 hPa Calm   2.6 km/h 69 % 0 mm
20:00 -9.6 °C -12.9 °C 33948 hPa Calm   7.7 km/h 67 % 0 mm
20:15 -9.6 °C -13 °C 33948 hPa Calm   12.9 km/h 67 % 0 mm
20:30 -9.9 °C -13.6 °C 33948 hPa NW 2.6 km/h 12.9 km/h 64 % 0 mm
20:45 -9.9 °C -13.5 °C 33937.9 hPa NW 2.6 km/h 12.9 km/h 65 % 0 mm
21:00 -10 °C -13.6 °C 33937.9 hPa WNW 2.6 km/h 15.6 km/h 65 % 0 mm
21:15 -10.2 °C -13.5 °C 33937.9 hPa West 5.1 km/h 23.3 km/h 67 % 0 mm
21:30 -10.4 °C -13.6 °C 33937.9 hPa West 2.6 km/h 12.9 km/h 68 % 0 mm
21:45 -10.4 °C -13.4 °C 33937.9 hPa West 2.6 km/h 18.2 km/h 70 % 0 mm
22:00 -10.6 °C -13.4 °C 33948 hPa Calm   15.6 km/h 71 % 0 mm
22:15 -10.9 °C -13.5 °C 33948 hPa Calm   5.1 km/h 73 % 0 mm
22:30 -11.2 °C -13.4 °C 33948 hPa Calm   2.6 km/h 76 % 0 mm
22:45 -11.4 °C -13.4 °C 33948 hPa Calm     79 % 0 mm
23:00 -11.6 °C -13.3 °C 33948 hPa Calm     81 % 0 mm
23:15 -11.7 °C -13.3 °C 33948 hPa Calm   7.7 km/h 82 % 0 mm
23:30 -11.7 °C -13.3 °C 33948 hPa Calm     83 % 0 mm
23:45 -11.8 °C -13.3 °C 33948 hPa Calm     84 % 0 mm
Esan sääasema
Terveisin Weather Underground - 3 mb

Alkuperäinen skripti  Jim McMurry - jmcmurry@mwt.net Sovitettu myös templatelle  Wim van der Kuil - Leuven-Template.eu

Laitteet joita käytämme:

Sääasema
Davis VP2

Sääasemaohjelma
Cumulus

Sääaseman tietokone
Asus EeePC

Palveluntarjoaja
Suncomet

Davis VP2

Cumulus

Asus EeePC

Suncomet